createdAt,value
2018-12-06T00:00:17.102Z,2.90
2018-12-06T00:02:44.549Z,2.87
2018-12-06T00:05:12.358Z,2.70
2018-12-06T00:07:44.581Z,2.43
2018-12-06T00:10:12.074Z,2.90
2018-12-06T00:12:39.867Z,2.80
2018-12-06T00:15:22.044Z,2.60
2018-12-06T00:17:49.931Z,2.70
2018-12-06T00:20:17.800Z,2.80
2018-12-06T00:22:45.241Z,2.60
2018-12-06T00:25:12.771Z,2.73
2018-12-06T00:27:40.541Z,2.90
2018-12-06T00:30:19.895Z,2.80
2018-12-06T00:32:49.128Z,2.70
2018-12-06T00:35:16.892Z,2.40
2018-12-06T00:37:45.061Z,2.53
2018-12-06T00:40:12.485Z,2.80
2018-12-06T00:42:40.319Z,2.80
2018-12-06T00:45:07.830Z,2.83
2018-12-06T00:47:35.688Z,2.77
2018-12-06T00:50:04.549Z,2.77
2018-12-06T00:52:33.713Z,2.80
2018-12-06T00:55:01.525Z,2.67
2018-12-06T00:57:29.286Z,3.00
2018-12-06T00:59:56.745Z,2.70
2018-12-06T01:02:24.406Z,2.90
2018-12-06T01:04:52.033Z,2.80
2018-12-06T01:07:20.117Z,3.07
2018-12-06T01:09:47.607Z,3.00
2018-12-06T01:12:17.013Z,3.10
2018-12-06T01:14:44.521Z,2.87
2018-12-06T01:17:12.165Z,3.13
2018-12-06T01:19:39.980Z,3.03
2018-12-06T01:22:07.521Z,2.83
2018-12-06T01:24:35.406Z,2.93
2018-12-06T01:27:02.947Z,3.00
2018-12-06T01:29:30.430Z,2.30
2018-12-06T01:31:58.283Z,2.73
2018-12-06T01:34:26.057Z,2.37
2018-12-06T01:36:53.853Z,2.70
2018-12-06T01:39:21.333Z,2.73
2018-12-06T01:41:48.802Z,2.90
2018-12-06T01:44:16.538Z,2.57
2018-12-06T01:46:44.047Z,2.57
2018-12-06T01:49:11.707Z,2.77
2018-12-06T01:51:39.215Z,2.63
2018-12-06T01:54:06.663Z,2.40
2018-12-06T01:56:34.219Z,2.70
2018-12-06T01:59:01.660Z,2.67
2018-12-06T02:01:29.177Z,2.63
2018-12-06T02:03:57.658Z,2.40
2018-12-06T02:06:25.191Z,2.67
2018-12-06T02:08:52.634Z,2.23
2018-12-06T02:11:20.773Z,2.50
2018-12-06T02:13:48.636Z,2.70
2018-12-06T02:16:16.283Z,2.47
2018-12-06T02:18:43.953Z,2.70
2018-12-06T02:21:11.418Z,2.70
2018-12-06T02:23:38.857Z,2.73
2018-12-06T02:26:06.334Z,2.70
2018-12-06T02:28:34.041Z,2.40
2018-12-06T02:31:01.703Z,2.80
2018-12-06T02:33:29.565Z,2.60
2018-12-06T02:35:57.621Z,2.57
2018-12-06T02:38:25.362Z,2.30
2018-12-06T02:40:53.354Z,2.53
2018-12-06T02:43:20.961Z,2.47
2018-12-06T02:45:48.678Z,2.53
2018-12-06T02:48:16.113Z,2.60
2018-12-06T02:50:43.738Z,2.40
2018-12-06T02:53:11.225Z,2.37
2018-12-06T02:55:38.727Z,2.47
2018-12-06T02:58:06.193Z,2.50
2018-12-06T03:00:33.646Z,2.60
2018-12-06T03:03:01.324Z,2.37
2018-12-06T03:05:29.273Z,2.33
2018-12-06T03:07:56.763Z,2.50
2018-12-06T03:10:24.203Z,2.30
2018-12-06T03:12:51.945Z,2.30
2018-12-06T03:15:19.435Z,2.30
2018-12-06T03:17:46.941Z,2.40
2018-12-06T03:20:14.759Z,2.30
2018-12-06T03:22:42.219Z,2.40
2018-12-06T03:25:09.758Z,2.50
2018-12-06T03:27:37.521Z,2.33
2018-12-06T03:30:06.110Z,2.23
2018-12-06T03:32:33.704Z,2.20
2018-12-06T03:35:01.449Z,2.60
2018-12-06T03:37:29.170Z,2.20
2018-12-06T03:39:56.610Z,2.80
2018-12-06T03:42:24.141Z,2.53
2018-12-06T03:44:52.004Z,2.30
2018-12-06T03:47:19.841Z,2.50
2018-12-06T03:49:47.942Z,2.10
2018-12-06T03:52:15.390Z,2.10
2018-12-06T03:54:43.043Z,2.30
2018-12-06T03:57:10.601Z,2.13
2018-12-06T03:59:38.037Z,1.90
2018-12-06T04:02:05.622Z,2.00
2018-12-06T04:04:33.373Z,2.13
2018-12-06T04:07:00.834Z,2.23
2018-12-06T04:09:28.427Z,2.00
2018-12-06T04:11:55.863Z,2.17
2018-12-06T04:14:23.362Z,2.00
2018-12-06T04:16:50.865Z,2.10
2018-12-06T04:19:18.535Z,2.60
2018-12-06T04:21:45.966Z,2.47
2018-12-06T04:24:13.412Z,2.20
2018-12-06T04:26:41.017Z,2.07
2018-12-06T04:29:08.574Z,2.20
2018-12-06T04:31:36.120Z,2.73
2018-12-06T04:34:03.998Z,2.40
2018-12-06T04:36:32.103Z,2.60
2018-12-06T04:38:59.693Z,2.37
2018-12-06T04:41:27.746Z,2.60
2018-12-06T04:43:56.108Z,2.47
2018-12-06T04:46:24.327Z,2.77
2018-12-06T04:48:51.776Z,2.33
2018-12-06T04:51:19.537Z,2.80
2018-12-06T04:53:46.977Z,2.80
2018-12-06T04:56:14.493Z,2.40
2018-12-06T04:58:41.974Z,2.60
2018-12-06T05:01:09.427Z,2.90
2018-12-06T05:03:37.501Z,2.60
2018-12-06T05:06:04.998Z,2.67
2018-12-06T05:08:32.511Z,2.63
2018-12-06T05:11:00.280Z,2.87
2018-12-06T05:13:28.306Z,2.80
2018-12-06T05:15:55.744Z,2.77
2018-12-06T05:18:23.496Z,2.87
2018-12-06T05:20:51.020Z,2.90
2018-12-06T05:23:18.445Z,2.87
2018-12-06T05:25:45.947Z,2.83
2018-12-06T05:28:13.389Z,2.53
2018-12-06T05:30:40.838Z,2.73
2018-12-06T05:33:08.767Z,3.07
2018-12-06T05:35:36.643Z,3.17
2018-12-06T05:38:04.436Z,3.00
2018-12-06T05:40:31.900Z,3.03
2018-12-06T05:42:59.389Z,3.37
2018-12-06T05:45:27.151Z,3.27
2018-12-06T05:47:54.581Z,3.30
2018-12-06T05:50:22.157Z,3.20
2018-12-06T05:52:49.654Z,3.27
2018-12-06T05:55:17.117Z,3.20
2018-12-06T05:57:44.842Z,3.30
2018-12-06T06:00:12.285Z,3.50
2018-12-06T06:02:41.069Z,3.43
2018-12-06T06:05:08.973Z,3.30
2018-12-06T06:07:36.421Z,3.73
2018-12-06T06:10:04.757Z,3.60
2018-12-06T06:12:32.209Z,3.90
2018-12-06T06:14:59.676Z,3.43
2018-12-06T06:17:27.141Z,3.63
2018-12-06T06:19:54.809Z,3.37
2018-12-06T06:22:22.282Z,3.40
2018-12-06T06:24:49.869Z,3.50
2018-12-06T06:27:17.309Z,3.33
2018-12-06T06:29:44.776Z,3.30
2018-12-06T06:32:12.741Z,3.07
2018-12-06T06:34:40.633Z,2.97
2018-12-06T06:37:08.469Z,3.33
2018-12-06T06:39:35.921Z,3.47
2018-12-06T06:42:03.558Z,3.33
2018-12-06T06:44:34.173Z,4.20
2018-12-06T06:47:01.658Z,3.50
2018-12-06T06:49:29.694Z,3.17
2018-12-06T06:51:57.145Z,3.03
2018-12-06T06:54:24.669Z,3.20
2018-12-06T06:56:52.191Z,3.20
2018-12-06T06:59:25.850Z,3.00
2018-12-06T07:01:49.057Z,3.27
2018-12-06T07:04:16.989Z,3.33
2018-12-06T07:06:45.929Z,3.50
2018-12-06T07:09:13.677Z,3.30
2018-12-06T07:11:41.113Z,3.50
2018-12-06T07:14:09.501Z,3.20
2018-12-06T07:16:37.283Z,3.23
2018-12-06T07:19:05.058Z,3.53
2018-12-06T07:21:32.519Z,3.30
2018-12-06T07:24:00.002Z,3.43
2018-12-06T07:26:27.770Z,3.47
2018-12-06T07:28:55.268Z,3.20
2018-12-06T07:31:22.706Z,3.30
2018-12-06T07:33:50.434Z,3.60
2018-12-06T07:36:18.043Z,3.73
2018-12-06T07:38:45.587Z,3.40
2018-12-06T07:41:13.097Z,3.60
2018-12-06T07:43:40.571Z,3.50
2018-12-06T07:46:10.010Z,3.53
2018-12-06T07:48:37.562Z,3.07
2018-12-06T07:51:05.427Z,3.10
2018-12-06T07:53:32.913Z,3.60
2018-12-06T07:56:00.645Z,4.00
2018-12-06T07:58:28.524Z,2.93
2018-12-06T08:00:56.045Z,3.60
2018-12-06T08:03:23.884Z,3.50
2018-12-06T08:05:51.727Z,3.23
2018-12-06T08:08:19.211Z,3.43
2018-12-06T08:10:46.750Z,3.60
2018-12-06T08:13:14.282Z,3.27
2018-12-06T08:15:41.788Z,3.33
2018-12-06T08:18:09.224Z,3.70
2018-12-06T08:20:37.149Z,3.87
2018-12-06T08:23:04.663Z,3.60
2018-12-06T08:25:32.097Z,3.70
2018-12-06T08:27:59.549Z,3.67
2018-12-06T08:30:27.035Z,3.20
2018-12-06T08:32:54.914Z,3.83
2018-12-06T08:35:22.891Z,4.00
2018-12-06T08:37:50.511Z,3.67
2018-12-06T08:40:18.028Z,3.70
2018-12-06T08:42:45.950Z,3.47
2018-12-06T08:45:13.902Z,3.93
2018-12-06T08:47:41.373Z,3.90
2018-12-06T08:50:09.297Z,3.37
2018-12-06T08:52:37.109Z,3.43
2018-12-06T08:55:05.101Z,3.30
2018-12-06T08:57:32.622Z,3.80
2018-12-06T09:00:00.074Z,3.03
2018-12-06T09:02:27.747Z,3.23
2018-12-06T09:04:55.279Z,3.60
2018-12-06T09:07:22.761Z,3.43
2018-12-06T09:09:50.237Z,3.37
2018-12-06T09:12:17.754Z,3.83
2018-12-06T09:14:45.240Z,3.63
2018-12-06T09:17:13.085Z,3.13
2018-12-06T09:19:40.825Z,3.40
2018-12-06T09:22:08.307Z,3.60
2018-12-06T09:24:35.788Z,3.20
2018-12-06T09:27:03.612Z,3.67
2018-12-06T09:29:31.101Z,4.00
2018-12-06T09:31:58.948Z,3.40
2018-12-06T09:34:26.832Z,4.40
2018-12-06T09:36:55.024Z,3.93
2018-12-06T09:39:22.916Z,3.70
2018-12-06T09:41:50.384Z,3.90
2018-12-06T09:44:17.903Z,4.00
2018-12-06T09:46:45.780Z,3.50
2018-12-06T09:49:14.093Z,3.60
2018-12-06T09:51:41.615Z,3.43
2018-12-06T09:54:09.085Z,4.00
2018-12-06T09:56:36.586Z,4.00
2018-12-06T09:59:04.102Z,3.40
2018-12-06T10:01:31.564Z,4.23
2018-12-06T10:03:59.335Z,3.87
2018-12-06T10:06:26.800Z,3.97
2018-12-06T10:08:54.244Z,4.30
2018-12-06T10:11:21.738Z,4.37
2018-12-06T10:13:49.186Z,4.10
2018-12-06T10:16:16.854Z,3.90
2018-12-06T10:18:44.688Z,3.77
2018-12-06T10:24:24.502Z,4.10
2018-12-06T10:26:52.267Z,4.40
2018-12-06T10:29:19.729Z,3.97
2018-12-06T10:31:47.365Z,3.90
2018-12-06T10:34:15.148Z,4.00
2018-12-06T10:36:42.582Z,4.20
2018-12-06T10:39:10.061Z,4.77
2018-12-06T10:41:38.026Z,4.50
2018-12-06T10:44:05.489Z,4.07
2018-12-06T10:46:33.297Z,4.10
2018-12-06T10:49:01.115Z,4.50
2018-12-06T10:51:41.273Z,4.97
2018-12-06T10:54:09.083Z,4.83
2018-12-06T10:56:36.609Z,5.10
2018-12-06T10:59:04.107Z,5.40
2018-12-06T11:01:37.239Z,5.00
2018-12-06T11:04:05.087Z,5.47
2018-12-06T11:06:32.561Z,5.43
2018-12-06T11:09:00.070Z,5.00
2018-12-06T11:11:27.675Z,5.13
2018-12-06T11:13:55.248Z,5.03
2018-12-06T11:16:22.742Z,4.63
2018-12-06T11:18:50.481Z,4.77
2018-12-06T11:21:17.928Z,4.90
2018-12-06T11:23:47.716Z,5.30
2018-12-06T11:26:15.320Z,5.43
2018-12-06T11:28:42.754Z,4.93
2018-12-06T11:31:10.377Z,6.00
2018-12-06T11:33:38.065Z,4.77
2018-12-06T11:36:05.831Z,5.93
2018-12-06T11:38:33.308Z,5.70
2018-12-06T11:41:00.751Z,5.37
2018-12-06T11:43:28.205Z,5.43
2018-12-06T11:45:56.256Z,5.30
2018-12-06T11:48:26.934Z,6.10
2018-12-06T11:50:53.642Z,5.60
2018-12-06T11:53:21.123Z,5.70
2018-12-06T11:55:48.559Z,5.57
2018-12-06T11:58:16.014Z,5.90
2018-12-06T12:00:43.543Z,5.70
2018-12-06T12:03:11.013Z,6.10
2018-12-06T12:05:38.769Z,6.60
2018-12-06T12:08:06.225Z,5.97
2018-12-06T12:10:35.099Z,6.00
2018-12-06T12:13:02.533Z,6.40
2018-12-06T12:15:30.254Z,7.03
2018-12-06T12:17:58.315Z,5.73
2018-12-06T12:20:26.105Z,5.97
2018-12-06T12:22:53.884Z,6.53
2018-12-06T12:25:21.329Z,6.30
2018-12-06T12:27:48.782Z,6.80
2018-12-06T12:30:16.285Z,6.97
2018-12-06T12:32:44.959Z,6.53
2018-12-06T12:35:12.997Z,6.63
2018-12-06T12:37:40.663Z,6.53
2018-12-06T12:40:09.273Z,6.83
2018-12-06T12:42:36.785Z,6.67
2018-12-06T12:45:05.870Z,6.33
2018-12-06T12:47:33.339Z,6.87
2018-12-06T12:50:01.008Z,6.33
2018-12-06T12:52:28.732Z,6.73
2018-12-06T12:54:56.209Z,6.97
2018-12-06T12:57:25.660Z,6.47
2018-12-06T12:59:53.749Z,7.40
2018-12-06T13:02:21.193Z,6.77
2018-12-06T13:04:48.918Z,8.10
2018-12-06T13:07:16.357Z,8.00
2018-12-06T13:09:43.809Z,7.83
2018-12-06T13:12:11.396Z,7.93
2018-12-06T13:14:38.833Z,7.77
2018-12-06T13:17:07.311Z,7.53
2018-12-06T13:19:35.233Z,7.27
2018-12-06T13:22:02.712Z,6.93
2018-12-06T13:24:32.906Z,7.70
2018-12-06T13:27:00.335Z,8.07
2018-12-06T13:29:27.843Z,8.23
2018-12-06T13:31:55.921Z,8.77
2018-12-06T13:34:24.029Z,8.47
2018-12-06T13:36:51.545Z,9.43
2018-12-06T13:39:18.990Z,8.50
2018-12-06T13:41:46.493Z,8.77
2018-12-06T13:44:14.638Z,8.60
2018-12-06T13:46:42.292Z,9.50
2018-12-06T13:49:10.387Z,8.60
2018-12-06T13:51:37.937Z,8.90
2018-12-06T13:54:05.450Z,8.20
2018-12-06T13:56:33.019Z,8.93
2018-12-06T13:59:01.050Z,8.10
2018-12-06T14:01:29.612Z,8.13
2018-12-06T14:03:57.217Z,8.07
2018-12-06T14:06:25.221Z,8.33
2018-12-06T14:08:52.750Z,7.37
2018-12-06T14:11:20.237Z,8.70
2018-12-06T14:13:47.697Z,8.27
2018-12-06T14:16:15.155Z,8.30
2018-12-06T14:21:23.213Z,8.33
2018-12-06T14:23:50.649Z,9.40
2018-12-06T14:26:18.085Z,8.30
2018-12-06T14:28:45.580Z,9.40
2018-12-06T14:31:13.106Z,9.00
2018-12-06T14:33:40.746Z,8.63
2018-12-06T14:36:08.385Z,8.63
2018-12-06T14:38:35.880Z,9.10
2018-12-06T14:41:03.320Z,9.03
2018-12-06T14:43:31.111Z,9.87
2018-12-06T14:45:58.999Z,9.27
2018-12-06T14:48:26.579Z,9.83
2018-12-06T14:50:54.323Z,9.47
2018-12-06T14:53:21.765Z,10.57
2018-12-06T14:55:49.229Z,10.33
2018-12-06T14:58:16.762Z,10.30
2018-12-06T15:00:44.202Z,10.17
2018-12-06T15:03:11.640Z,9.50
2018-12-06T15:05:39.423Z,10.40
2018-12-06T15:08:06.869Z,9.30
2018-12-06T15:10:34.404Z,10.10
2018-12-06T15:13:01.859Z,10.13
2018-12-06T15:15:29.293Z,10.43
2018-12-06T15:17:56.731Z,9.37
2018-12-06T15:20:24.562Z,10.73
2018-12-06T15:22:52.010Z,11.13
2018-12-06T15:25:19.458Z,9.53
2018-12-06T15:27:47.364Z,10.67
2018-12-06T15:30:14.865Z,10.13
2018-12-06T15:32:42.545Z,9.93
2018-12-06T15:35:10.313Z,10.10
2018-12-06T15:37:37.783Z,10.73
2018-12-06T15:40:05.895Z,10.10
2018-12-06T15:42:33.421Z,10.00
2018-12-06T15:45:01.363Z,11.73
2018-12-06T15:47:28.890Z,10.73
2018-12-06T15:49:57.061Z,11.30
2018-12-06T15:52:24.489Z,11.10
2018-12-06T15:54:51.984Z,10.93
2018-12-06T15:57:19.444Z,11.60
2018-12-06T15:59:46.927Z,13.10
2018-12-06T16:02:14.416Z,11.77
2018-12-06T16:04:42.872Z,12.83
2018-12-06T16:07:10.321Z,11.33
2018-12-06T16:09:37.769Z,11.10
2018-12-06T16:12:05.321Z,12.30
2018-12-06T16:14:32.750Z,12.07
2018-12-06T16:17:00.242Z,11.70
2018-12-06T16:19:28.233Z,10.97
2018-12-06T16:21:55.673Z,13.07
2018-12-06T16:24:23.163Z,12.07
2018-12-06T16:26:51.090Z,12.27
2018-12-06T16:29:18.613Z,13.67
2018-12-06T16:31:46.384Z,11.47
2018-12-06T16:34:14.377Z,13.00
2018-12-06T16:36:42.269Z,13.20
2018-12-06T16:39:09.725Z,14.10
2018-12-06T16:41:37.209Z,11.93
2018-12-06T16:44:04.954Z,12.47
2018-12-06T16:46:32.772Z,13.93
2018-12-06T16:49:00.721Z,13.77
2018-12-06T16:51:28.172Z,13.87
2018-12-06T16:53:55.622Z,12.80
2018-12-06T16:56:23.093Z,13.70
2018-12-06T16:58:50.545Z,14.40
2018-12-06T17:03:46.069Z,14.80
2018-12-06T17:06:13.518Z,12.93
2018-12-06T17:08:40.971Z,12.63
2018-12-06T17:11:08.438Z,12.97
2018-12-06T17:13:35.885Z,12.90
2018-12-06T17:16:03.455Z,14.03
2018-12-06T17:18:31.729Z,14.60
2018-12-06T17:20:59.597Z,15.60
2018-12-06T17:23:27.513Z,13.67
2018-12-06T17:25:55.001Z,13.63
2018-12-06T17:28:22.897Z,12.93
2018-12-06T17:30:50.511Z,13.73
2018-12-06T17:33:18.178Z,14.73
2018-12-06T17:35:45.858Z,15.40
2018-12-06T17:38:13.290Z,16.77
2018-12-06T17:40:41.184Z,14.73
2018-12-06T17:43:08.889Z,13.60
2018-12-06T17:45:38.223Z,13.83
2018-12-06T17:48:05.870Z,13.80
2018-12-06T17:50:33.364Z,14.70
2018-12-06T17:53:00.887Z,15.27
2018-12-06T17:55:28.354Z,17.23
2018-12-06T17:57:55.825Z,14.10
2018-12-06T18:00:23.281Z,14.13
2018-12-06T18:02:50.974Z,13.63
2018-12-06T18:05:18.717Z,14.47
2018-12-06T18:07:46.158Z,13.57
2018-12-06T18:10:13.879Z,16.20
2018-12-06T18:12:41.444Z,13.60
2018-12-06T18:15:09.305Z,14.17
2018-12-06T18:17:37.001Z,13.13
2018-12-06T18:20:05.326Z,14.80
2018-12-06T18:22:32.848Z,13.70
2018-12-06T18:25:00.291Z,14.63
2018-12-06T18:27:27.741Z,13.73
2018-12-06T18:29:55.523Z,13.10
2018-12-06T18:32:23.494Z,12.80
2018-12-06T18:34:51.238Z,13.60
2018-12-06T18:37:18.673Z,14.63
2018-12-06T18:39:46.125Z,17.57
2018-12-06T18:42:13.639Z,13.73
2018-12-06T18:44:41.412Z,12.67
2018-12-06T18:47:08.909Z,14.13
2018-12-06T18:49:37.350Z,16.07
2018-12-06T18:52:04.873Z,15.87
2018-12-06T18:54:32.349Z,15.90
2018-12-06T18:57:00.166Z,17.67
2018-12-06T18:59:27.609Z,16.87
2018-12-06T19:01:55.433Z,15.50
2018-12-06T19:04:23.295Z,15.93
2018-12-06T19:06:50.733Z,14.60
2018-12-06T19:09:18.185Z,14.63
2018-12-06T19:11:45.758Z,13.73
2018-12-06T19:14:13.234Z,14.80
2018-12-06T19:16:40.749Z,14.80
2018-12-06T19:19:08.515Z,14.63
2018-12-06T19:21:36.005Z,14.83
2018-12-06T19:24:03.529Z,14.73
2018-12-06T19:26:31.421Z,14.30
2018-12-06T19:29:00.144Z,14.13
2018-12-06T19:31:27.596Z,16.40
2018-12-06T19:33:55.529Z,14.70
2018-12-06T19:36:23.249Z,18.23
2018-12-06T19:38:50.689Z,14.73
2018-12-06T19:41:18.180Z,18.50
2018-12-06T19:43:45.985Z,15.53
2018-12-06T19:46:13.718Z,17.83
2018-12-06T19:48:41.602Z,14.43
2018-12-06T19:51:09.436Z,14.30
2018-12-06T19:53:36.918Z,17.43
2018-12-06T19:56:04.423Z,15.80
2018-12-06T19:58:40.492Z,16.93
2018-12-06T20:01:08.165Z,15.47
2018-12-06T20:03:35.977Z,14.63
2018-12-06T20:06:03.524Z,15.00
2018-12-06T20:08:31.087Z,16.20
2018-12-06T20:10:58.824Z,14.50
2018-12-06T20:13:26.270Z,14.20
2018-12-06T20:15:53.716Z,14.93
2018-12-06T20:18:21.607Z,14.13
2018-12-06T20:20:49.049Z,14.60
2018-12-06T20:23:16.559Z,15.57
2018-12-06T20:25:44.183Z,14.67
2018-12-06T20:28:11.971Z,14.13
2018-12-06T20:30:39.441Z,15.30
2018-12-06T20:33:07.156Z,14.83
2018-12-06T20:35:34.812Z,15.13
2018-12-06T20:38:02.290Z,15.77
2018-12-06T20:40:29.824Z,15.63
2018-12-06T20:42:57.740Z,15.57
2018-12-06T20:45:25.442Z,16.43
2018-12-06T20:47:52.877Z,16.77
2018-12-06T20:50:20.437Z,16.33
2018-12-06T20:52:47.989Z,14.20
2018-12-06T20:55:15.437Z,15.07
2018-12-06T20:57:42.888Z,19.13
2018-12-06T21:00:10.641Z,16.40
2018-12-06T21:02:38.500Z,17.40
2018-12-06T21:05:06.229Z,18.50
2018-12-06T21:07:33.842Z,16.00
2018-12-06T21:10:01.405Z,14.67
2018-12-06T21:12:29.013Z,19.07
2018-12-06T21:14:56.558Z,15.30
2018-12-06T21:17:24.081Z,17.27
2018-12-06T21:19:52.028Z,19.40
2018-12-06T21:22:19.493Z,19.57
2018-12-06T21:24:46.970Z,18.83
2018-12-06T21:27:14.575Z,17.27
2018-12-06T21:29:42.173Z,17.93
2018-12-06T21:32:09.843Z,16.10
2018-12-06T21:34:37.703Z,17.73
2018-12-06T21:37:05.149Z,16.40
2018-12-06T21:39:32.931Z,18.87
2018-12-06T21:42:00.401Z,16.43
2018-12-06T21:44:28.233Z,19.83
2018-12-06T21:46:55.982Z,15.80
2018-12-06T21:49:23.825Z,15.90
2018-12-06T21:51:51.269Z,16.87
2018-12-06T21:54:18.736Z,16.40
2018-12-06T21:56:46.464Z,18.17
2018-12-06T21:59:13.909Z,18.33
2018-12-06T22:01:41.551Z,15.70
2018-12-06T22:04:09.743Z,16.83
2018-12-06T22:06:37.184Z,17.40
2018-12-06T22:09:05.867Z,21.20
2018-12-06T22:11:33.337Z,16.67
2018-12-06T22:14:00.801Z,18.47
2018-12-06T22:16:28.290Z,17.23
2018-12-06T22:18:56.178Z,16.47
2018-12-06T22:21:23.611Z,20.13
2018-12-06T22:23:51.087Z,20.57
2018-12-06T22:26:18.864Z,19.20
2018-12-06T22:28:46.614Z,18.80
2018-12-06T22:31:14.065Z,17.47
2018-12-06T22:33:42.892Z,15.70
2018-12-06T22:36:10.516Z,19.83
2018-12-06T22:41:19.863Z,21.03
2018-12-06T22:43:47.472Z,16.60
2018-12-06T22:46:15.137Z,16.63
2018-12-06T22:48:42.671Z,18.70
2018-12-06T22:51:10.635Z,17.03
2018-12-06T22:53:38.373Z,19.47
2018-12-06T22:56:05.885Z,19.90
2018-12-06T22:58:33.400Z,20.30
2018-12-06T23:01:01.554Z,16.53
2018-12-06T23:03:30.474Z,15.67
2018-12-06T23:05:57.933Z,17.37
2018-12-06T23:08:25.391Z,15.67
2018-12-06T23:10:52.959Z,18.70
2018-12-06T23:13:20.564Z,16.13
2018-12-06T23:15:48.189Z,15.97
2018-12-06T23:18:15.965Z,18.30
2018-12-06T23:20:43.904Z,15.47
2018-12-06T23:23:11.338Z,17.20
2018-12-06T23:25:39.158Z,15.50
2018-12-06T23:28:07.054Z,15.50
2018-12-06T23:30:34.529Z,18.17
2018-12-06T23:33:02.476Z,17.03
2018-12-06T23:35:30.229Z,18.43
2018-12-06T23:37:57.872Z,16.03
2018-12-06T23:40:25.373Z,18.70
2018-12-06T23:42:53.128Z,16.27
2018-12-06T23:45:20.797Z,19.60
2018-12-06T23:47:48.291Z,17.10
2018-12-06T23:50:15.940Z,17.80
2018-12-06T23:52:43.438Z,20.23
2018-12-06T23:55:10.997Z,16.27
2018-12-06T23:57:38.533Z,16.70
